sensor_id;sensor_type;location;lat;lon;timestamp;temperature;humidity
75262;DHT22;63859;51.064;4.580;2022-12-19T00:01:48;2.80;99.90
75262;DHT22;63859;51.064;4.580;2022-12-19T00:04:14;2.90;99.90
75262;DHT22;63859;51.064;4.580;2022-12-19T00:06:44;2.90;99.90
75262;DHT22;63859;51.064;4.580;2022-12-19T00:09:11;3.00;99.90
75262;DHT22;63859;51.064;4.580;2022-12-19T00:11:36;3.00;99.90
75262;DHT22;63859;51.064;4.580;2022-12-19T00:14:03;3.00;99.90
75262;DHT22;63859;51.064;4.580;2022-12-19T00:16:29;3.10;99.90
75262;DHT22;63859;51.064;4.580;2022-12-19T00:18:56;3.10;99.90
75262;DHT22;63859;51.064;4.580;2022-12-19T00:21:24;3.20;99.90
75262;DHT22;63859;51.064;4.580;2022-12-19T00:23:51;3.20;99.90
75262;DHT22;63859;51.064;4.580;2022-12-19T00:28:43;3.20;99.90
75262;DHT22;63859;51.064;4.580;2022-12-19T00:31:10;3.20;99.90
75262;DHT22;63859;51.064;4.580;2022-12-19T00:33:36;3.30;99.90
75262;DHT22;63859;51.064;4.580;2022-12-19T00:36:04;3.30;99.90
75262;DHT22;63859;51.064;4.580;2022-12-19T00:38:30;3.40;99.90
75262;DHT22;63859;51.064;4.580;2022-12-19T00:41:12;3.40;99.90
75262;DHT22;63859;51.064;4.580;2022-12-19T00:43:39;3.40;99.90
75262;DHT22;63859;51.064;4.580;2022-12-19T00:46:08;3.50;99.90
75262;DHT22;63859;51.064;4.580;2022-12-19T00:48:34;3.50;99.90
75262;DHT22;63859;51.064;4.580;2022-12-19T00:51:03;3.50;99.90
75262;DHT22;63859;51.064;4.580;2022-12-19T00:53:29;3.50;99.90
75262;DHT22;63859;51.064;4.580;2022-12-19T00:55:55;3.60;99.90
75262;DHT22;63859;51.064;4.580;2022-12-19T00:58:21;3.60;99.90
75262;DHT22;63859;51.064;4.580;2022-12-19T01:00:46;3.60;99.90
75262;DHT22;63859;51.064;4.580;2022-12-19T01:03:12;3.60;99.90
75262;DHT22;63859;51.064;4.580;2022-12-19T01:05:38;3.60;99.90
75262;DHT22;63859;51.064;4.580;2022-12-19T01:08:03;3.60;99.90
75262;DHT22;63859;51.064;4.580;2022-12-19T01:10:29;3.60;99.90
75262;DHT22;63859;51.064;4.580;2022-12-19T01:12:55;3.60;99.90
75262;DHT22;63859;51.064;4.580;2022-12-19T01:15:20;3.80;99.90
75262;DHT22;63859;51.064;4.580;2022-12-19T01:17:47;3.70;99.90
75262;DHT22;63859;51.064;4.580;2022-12-19T01:20:17;3.90;99.90
75262;DHT22;63859;51.064;4.580;2022-12-19T01:22:43;3.70;99.90
75262;DHT22;63859;51.064;4.580;2022-12-19T01:25:10;3.70;99.90
75262;DHT22;63859;51.064;4.580;2022-12-19T01:27:35;3.80;99.90
75262;DHT22;63859;51.064;4.580;2022-12-19T01:30:01;3.80;99.90
75262;DHT22;63859;51.064;4.580;2022-12-19T01:32:27;3.80;99.90
75262;DHT22;63859;51.064;4.580;2022-12-19T01:34:52;3.90;99.90
75262;DHT22;63859;51.064;4.580;2022-12-19T01:37:19;3.90;99.90
75262;DHT22;63859;51.064;4.580;2022-12-19T01:39:44;3.90;99.90
75262;DHT22;63859;51.064;4.580;2022-12-19T01:42:20;3.90;99.90
75262;DHT22;63859;51.064;4.580;2022-12-19T01:45:22;4.00;99.90
75262;DHT22;63859;51.064;4.580;2022-12-19T01:47:52;4.00;99.90
75262;DHT22;63859;51.064;4.580;2022-12-19T01:50:48;4.10;99.90
75262;DHT22;63859;51.064;4.580;2022-12-19T01:53:15;4.10;99.90
75262;DHT22;63859;51.064;4.580;2022-12-19T01:55:42;4.10;99.90
75262;DHT22;63859;51.064;4.580;2022-12-19T01:58:10;4.10;99.90
75262;DHT22;63859;51.064;4.580;2022-12-19T02:00:37;4.20;99.90
75262;DHT22;63859;51.064;4.580;2022-12-19T02:05:34;4.20;99.90
75262;DHT22;63859;51.064;4.580;2022-12-19T02:08:00;4.20;99.90
75262;DHT22;63859;51.064;4.580;2022-12-19T02:10:26;4.30;99.90
75262;DHT22;63859;51.064;4.580;2022-12-19T02:12:52;4.10;99.90
75262;DHT22;63859;51.064;4.580;2022-12-19T02:15:18;4.30;99.90
75262;DHT22;63859;51.064;4.580;2022-12-19T02:23:53;4.40;99.90
75262;DHT22;63859;51.064;4.580;2022-12-19T02:31:48;4.50;99.90
75262;DHT22;63859;51.064;4.580;2022-12-19T02:34:36;4.70;99.90
75262;DHT22;63859;51.064;4.580;2022-12-19T02:37:16;4.70;99.90
75262;DHT22;63859;51.064;4.580;2022-12-19T02:40:00;4.80;99.90
75262;DHT22;63859;51.064;4.580;2022-12-19T02:42:29;4.90;99.90
75262;DHT22;63859;51.064;4.580;2022-12-19T02:44:57;5.00;99.90
75262;DHT22;63859;51.064;4.580;2022-12-19T02:47:23;5.10;99.90
75262;DHT22;63859;51.064;4.580;2022-12-19T02:49:49;5.10;99.90
75262;DHT22;63859;51.064;4.580;2022-12-19T02:54:45;5.20;99.90
75262;DHT22;63859;51.064;4.580;2022-12-19T03:02:38;5.40;99.90
75262;DHT22;63859;51.064;4.580;2022-12-19T03:10:42;5.40;99.90
75262;DHT22;63859;51.064;4.580;2022-12-19T03:13:10;5.50;99.90
75262;DHT22;63859;51.064;4.580;2022-12-19T03:15:38;5.50;99.90
75262;DHT22;63859;51.064;4.580;2022-12-19T03:18:05;5.60;99.90
75262;DHT22;63859;51.064;4.580;2022-12-19T03:23:31;5.60;99.90
75262;DHT22;63859;51.064;4.580;2022-12-19T03:26:01;5.60;99.90
75262;DHT22;63859;51.064;4.580;2022-12-19T03:31:19;5.70;99.90
75262;DHT22;63859;51.064;4.580;2022-12-19T03:33:53;5.70;99.90
75262;DHT22;63859;51.064;4.580;2022-12-19T03:36:24;5.70;99.90
75262;DHT22;63859;51.064;4.580;2022-12-19T03:38:52;5.80;99.90
75262;DHT22;63859;51.064;4.580;2022-12-19T03:41:20;5.80;99.90
75262;DHT22;63859;51.064;4.580;2022-12-19T03:44:07;5.80;99.90
75262;DHT22;63859;51.064;4.580;2022-12-19T03:46:36;5.80;99.90
75262;DHT22;63859;51.064;4.580;2022-12-19T03:49:04;5.80;99.90
75262;DHT22;63859;51.064;4.580;2022-12-19T03:52:09;5.80;99.90
75262;DHT22;63859;51.064;4.580;2022-12-19T03:54:33;5.80;99.90
75262;DHT22;63859;51.064;4.580;2022-12-19T03:57:16;5.80;99.90
75262;DHT22;63859;51.064;4.580;2022-12-19T03:59:54;5.90;99.90
75262;DHT22;63859;51.064;4.580;2022-12-19T04:02:22;5.90;99.90
75262;DHT22;63859;51.064;4.580;2022-12-19T04:04:57;6.00;99.90
75262;DHT22;63859;51.064;4.580;2022-12-19T04:07:23;6.00;99.90
75262;DHT22;63859;51.064;4.580;2022-12-19T04:09:49;6.00;99.90
75262;DHT22;63859;51.064;4.580;2022-12-19T04:12:37;6.00;99.90
75262;DHT22;63859;51.064;4.580;2022-12-19T04:15:04;6.10;99.90
75262;DHT22;63859;51.064;4.580;2022-12-19T04:22:39;6.10;99.90
75262;DHT22;63859;51.064;4.580;2022-12-19T04:25:12;6.10;99.90
75262;DHT22;63859;51.064;4.580;2022-12-19T04:27:42;6.10;99.90
75262;DHT22;63859;51.064;4.580;2022-12-19T04:30:12;6.10;99.90
75262;DHT22;63859;51.064;4.580;2022-12-19T04:32:41;6.20;99.90
75262;DHT22;63859;51.064;4.580;2022-12-19T04:35:07;6.20;99.90
75262;DHT22;63859;51.064;4.580;2022-12-19T04:37:33;6.20;99.90
75262;DHT22;63859;51.064;4.580;2022-12-19T04:39:58;6.20;99.90
75262;DHT22;63859;51.064;4.580;2022-12-19T04:42:24;6.30;99.90
75262;DHT22;63859;51.064;4.580;2022-12-19T04:44:50;6.30;99.90
75262;DHT22;63859;51.064;4.580;2022-12-19T04:47:15;6.40;99.90
75262;DHT22;63859;51.064;4.580;2022-12-19T04:49:41;6.40;99.90
75262;DHT22;63859;51.064;4.580;2022-12-19T04:52:07;6.40;99.90
75262;DHT22;63859;51.064;4.580;2022-12-19T04:54:32;6.40;99.90
75262;DHT22;63859;51.064;4.580;2022-12-19T04:56:58;6.50;99.90
75262;DHT22;63859;51.064;4.580;2022-12-19T04:59:24;6.50;99.90
75262;DHT22;63859;51.064;4.580;2022-12-19T05:01:49;6.50;99.90
75262;DHT22;63859;51.064;4.580;2022-12-19T05:04:15;6.50;99.90
75262;DHT22;63859;51.064;4.580;2022-12-19T05:06:40;6.60;99.90
75262;DHT22;63859;51.064;4.580;2022-12-19T05:09:06;6.60;99.90
75262;DHT22;63859;51.064;4.580;2022-12-19T05:11:32;6.60;99.90
75262;DHT22;63859;51.064;4.580;2022-12-19T05:13:58;6.70;99.90
75262;DHT22;63859;51.064;4.580;2022-12-19T05:16:24;6.70;99.90
75262;DHT22;63859;51.064;4.580;2022-12-19T05:18:49;6.70;99.90
75262;DHT22;63859;51.064;4.580;2022-12-19T05:21:15;6.70;99.90
75262;DHT22;63859;51.064;4.580;2022-12-19T05:23:41;6.80;99.90
75262;DHT22;63859;51.064;4.580;2022-12-19T05:26:07;6.80;99.90
75262;DHT22;63859;51.064;4.580;2022-12-19T05:28:33;6.80;99.90
75262;DHT22;63859;51.064;4.580;2022-12-19T05:33:28;6.90;99.90
75262;DHT22;63859;51.064;4.580;2022-12-19T05:35:54;6.90;99.90
75262;DHT22;63859;51.064;4.580;2022-12-19T05:38:19;6.90;99.90
75262;DHT22;63859;51.064;4.580;2022-12-19T05:40:45;7.00;99.90
75262;DHT22;63859;51.064;4.580;2022-12-19T05:43:10;7.00;99.90
75262;DHT22;63859;51.064;4.580;2022-12-19T05:45:38;7.00;99.90
75262;DHT22;63859;51.064;4.580;2022-12-19T05:48:04;6.90;99.90
75262;DHT22;63859;51.064;4.580;2022-12-19T05:50:30;7.00;99.90
75262;DHT22;63859;51.064;4.580;2022-12-19T05:52:55;7.10;99.90
75262;DHT22;63859;51.064;4.580;2022-12-19T05:55:21;7.10;99.90
75262;DHT22;63859;51.064;4.580;2022-12-19T05:57:46;7.10;99.90
75262;DHT22;63859;51.064;4.580;2022-12-19T06:00:12;7.10;99.90
75262;DHT22;63859;51.064;4.580;2022-12-19T06:02:38;7.10;99.90
75262;DHT22;63859;51.064;4.580;2022-12-19T06:05:05;7.20;99.90
75262;DHT22;63859;51.064;4.580;2022-12-19T06:07:30;7.20;99.90
75262;DHT22;63859;51.064;4.580;2022-12-19T06:09:56;7.20;99.90
75262;DHT22;63859;51.064;4.580;2022-12-19T06:12:22;7.20;99.90
75262;DHT22;63859;51.064;4.580;2022-12-19T06:14:48;7.10;99.90
75262;DHT22;63859;51.064;4.580;2022-12-19T06:17:13;7.20;99.90
75262;DHT22;63859;51.064;4.580;2022-12-19T06:19:39;7.20;99.90
75262;DHT22;63859;51.064;4.580;2022-12-19T06:22:04;7.20;99.90
75262;DHT22;63859;51.064;4.580;2022-12-19T06:24:30;7.20;99.90
75262;DHT22;63859;51.064;4.580;2022-12-19T06:26:55;7.20;99.90
75262;DHT22;63859;51.064;4.580;2022-12-19T06:29:21;7.20;99.90
75262;DHT22;63859;51.064;4.580;2022-12-19T06:31:47;7.20;99.90
75262;DHT22;63859;51.064;4.580;2022-12-19T06:34:12;7.30;99.90
75262;DHT22;63859;51.064;4.580;2022-12-19T06:36:38;7.30;99.90
75262;DHT22;63859;51.064;4.580;2022-12-19T06:39:04;7.30;99.90
75262;DHT22;63859;51.064;4.580;2022-12-19T06:41:29;7.40;99.90
75262;DHT22;63859;51.064;4.580;2022-12-19T06:44:16;7.30;99.90
75262;DHT22;63859;51.064;4.580;2022-12-19T06:46:43;7.40;99.90
75262;DHT22;63859;51.064;4.580;2022-12-19T06:49:09;7.30;99.90
75262;DHT22;63859;51.064;4.580;2022-12-19T06:51:35;7.40;99.90
75262;DHT22;63859;51.064;4.580;2022-12-19T06:54:01;7.30;99.90
75262;DHT22;63859;51.064;4.580;2022-12-19T06:56:26;7.30;99.90
75262;DHT22;63859;51.064;4.580;2022-12-19T06:58:52;7.40;99.90
75262;DHT22;63859;51.064;4.580;2022-12-19T07:02:07;7.40;99.90
75262;DHT22;63859;51.064;4.580;2022-12-19T07:04:05;7.30;99.90
75262;DHT22;63859;51.064;4.580;2022-12-19T07:06:31;7.20;99.90
75262;DHT22;63859;51.064;4.580;2022-12-19T07:08:57;7.30;99.90
75262;DHT22;63859;51.064;4.580;2022-12-19T07:11:23;7.30;99.90
75262;DHT22;63859;51.064;4.580;2022-12-19T07:13:48;7.30;99.90
75262;DHT22;63859;51.064;4.580;2022-12-19T07:16:14;7.20;99.90
75262;DHT22;63859;51.064;4.580;2022-12-19T07:18:40;7.40;99.90
75262;DHT22;63859;51.064;4.580;2022-12-19T07:21:07;7.30;99.90
75262;DHT22;63859;51.064;4.580;2022-12-19T07:23:35;7.30;99.90
75262;DHT22;63859;51.064;4.580;2022-12-19T07:26:01;7.40;99.90
75262;DHT22;63859;51.064;4.580;2022-12-19T07:28:27;7.30;99.90
75262;DHT22;63859;51.064;4.580;2022-12-19T07:30:53;7.30;99.90
75262;DHT22;63859;51.064;4.580;2022-12-19T07:33:18;7.30;99.90
75262;DHT22;63859;51.064;4.580;2022-12-19T07:35:44;7.40;99.90
75262;DHT22;63859;51.064;4.580;2022-12-19T07:38:10;7.40;99.90
75262;DHT22;63859;51.064;4.580;2022-12-19T07:40:35;7.50;99.90
75262;DHT22;63859;51.064;4.580;2022-12-19T07:43:02;7.30;99.90
75262;DHT22;63859;51.064;4.580;2022-12-19T07:45:29;7.40;99.90
75262;DHT22;63859;51.064;4.580;2022-12-19T07:47:59;7.40;99.90
75262;DHT22;63859;51.064;4.580;2022-12-19T07:50:25;7.40;99.90
75262;DHT22;63859;51.064;4.580;2022-12-19T07:52:50;7.40;99.90
75262;DHT22;63859;51.064;4.580;2022-12-19T07:55:16;7.20;99.90
75262;DHT22;63859;51.064;4.580;2022-12-19T07:57:42;7.40;99.90
75262;DHT22;63859;51.064;4.580;2022-12-19T08:00:08;7.40;99.90
75262;DHT22;63859;51.064;4.580;2022-12-19T08:02:33;7.40;99.90
75262;DHT22;63859;51.064;4.580;2022-12-19T08:05:01;7.40;99.90
75262;DHT22;63859;51.064;4.580;2022-12-19T08:07:27;7.40;99.90
75262;DHT22;63859;51.064;4.580;2022-12-19T08:09:52;7.50;99.90
75262;DHT22;63859;51.064;4.580;2022-12-19T08:12:18;7.40;99.90
75262;DHT22;63859;51.064;4.580;2022-12-19T08:14:44;7.50;99.90
75262;DHT22;63859;51.064;4.580;2022-12-19T08:17:09;7.50;99.90
75262;DHT22;63859;51.064;4.580;2022-12-19T08:19:35;7.60;99.90
75262;DHT22;63859;51.064;4.580;2022-12-19T08:22:01;7.50;99.90
75262;DHT22;63859;51.064;4.580;2022-12-19T08:24:26;7.60;99.90
75262;DHT22;63859;51.064;4.580;2022-12-19T08:26:52;7.60;99.90
75262;DHT22;63859;51.064;4.580;2022-12-19T08:29:18;7.60;99.90
75262;DHT22;63859;51.064;4.580;2022-12-19T08:31:43;7.60;99.90
75262;DHT22;63859;51.064;4.580;2022-12-19T08:34:09;7.70;99.90
75262;DHT22;63859;51.064;4.580;2022-12-19T08:36:35;7.70;99.90
75262;DHT22;63859;51.064;4.580;2022-12-19T08:39:02;7.80;99.90
75262;DHT22;63859;51.064;4.580;2022-12-19T08:41:28;7.80;99.90
75262;DHT22;63859;51.064;4.580;2022-12-19T08:43:53;7.80;99.90
75262;DHT22;63859;51.064;4.580;2022-12-19T08:46:20;7.90;99.90
75262;DHT22;63859;51.064;4.580;2022-12-19T08:48:46;8.00;99.90
75262;DHT22;63859;51.064;4.580;2022-12-19T08:51:13;8.00;99.90
75262;DHT22;63859;51.064;4.580;2022-12-19T08:53:40;8.10;99.90
75262;DHT22;63859;51.064;4.580;2022-12-19T08:56:14;8.00;99.90
75262;DHT22;63859;51.064;4.580;2022-12-19T08:58:41;8.10;99.90
75262;DHT22;63859;51.064;4.580;2022-12-19T09:01:10;8.10;99.90
75262;DHT22;63859;51.064;4.580;2022-12-19T09:03:37;8.20;99.90
75262;DHT22;63859;51.064;4.580;2022-12-19T09:06:06;8.20;99.90
75262;DHT22;63859;51.064;4.580;2022-12-19T09:08:32;8.20;99.90
75262;DHT22;63859;51.064;4.580;2022-12-19T09:11:00;8.20;99.90
75262;DHT22;63859;51.064;4.580;2022-12-19T09:13:27;8.20;99.90
75262;DHT22;63859;51.064;4.580;2022-12-19T09:16:00;8.30;99.90
75262;DHT22;63859;51.064;4.580;2022-12-19T09:18:26;8.20;99.90
75262;DHT22;63859;51.064;4.580;2022-12-19T09:20:53;8.30;99.90
75262;DHT22;63859;51.064;4.580;2022-12-19T09:23:20;8.40;99.90
75262;DHT22;63859;51.064;4.580;2022-12-19T09:25:46;8.30;99.90
75262;DHT22;63859;51.064;4.580;2022-12-19T09:28:11;8.40;99.90
75262;DHT22;63859;51.064;4.580;2022-12-19T09:30:37;8.50;99.90
75262;DHT22;63859;51.064;4.580;2022-12-19T09:33:02;8.40;99.90
75262;DHT22;63859;51.064;4.580;2022-12-19T09:35:29;8.50;99.90
75262;DHT22;63859;51.064;4.580;2022-12-19T09:37:55;8.50;99.90
75262;DHT22;63859;51.064;4.580;2022-12-19T09:40:20;8.60;99.90
75262;DHT22;63859;51.064;4.580;2022-12-19T09:42:50;8.60;99.90
75262;DHT22;63859;51.064;4.580;2022-12-19T09:45:31;8.60;99.90
75262;DHT22;63859;51.064;4.580;2022-12-19T09:48:02;8.60;99.90
75262;DHT22;63859;51.064;4.580;2022-12-19T09:50:52;8.70;99.90
75262;DHT22;63859;51.064;4.580;2022-12-19T09:53:28;8.60;99.90
75262;DHT22;63859;51.064;4.580;2022-12-19T09:55:57;8.70;99.90
75262;DHT22;63859;51.064;4.580;2022-12-19T09:58:40;8.60;99.90
75262;DHT22;63859;51.064;4.580;2022-12-19T10:01:16;8.70;99.90
75262;DHT22;63859;51.064;4.580;2022-12-19T10:03:57;8.60;99.90
75262;DHT22;63859;51.064;4.580;2022-12-19T10:06:23;8.60;99.90
75262;DHT22;63859;51.064;4.580;2022-12-19T10:08:50;8.60;99.90
75262;DHT22;63859;51.064;4.580;2022-12-19T10:14:15;8.50;99.90
75262;DHT22;63859;51.064;4.580;2022-12-19T10:17:00;8.50;99.90
75262;DHT22;63859;51.064;4.580;2022-12-19T10:22:22;8.50;99.90
75262;DHT22;63859;51.064;4.580;2022-12-19T10:24:59;8.50;99.90
75262;DHT22;63859;51.064;4.580;2022-12-19T10:30:40;8.50;99.90
75262;DHT22;63859;51.064;4.580;2022-12-19T10:36:10;8.50;99.90
75262;DHT22;63859;51.064;4.580;2022-12-19T10:41:40;8.50;99.90
75262;DHT22;63859;51.064;4.580;2022-12-19T10:44:09;8.50;99.90
75262;DHT22;63859;51.064;4.580;2022-12-19T10:46:40;8.50;99.90
75262;DHT22;63859;51.064;4.580;2022-12-19T10:49:16;8.50;99.90
75262;DHT22;63859;51.064;4.580;2022-12-19T10:54:21;8.60;99.90
75262;DHT22;63859;51.064;4.580;2022-12-19T10:56:46;8.60;99.90
75262;DHT22;63859;51.064;4.580;2022-12-19T10:59:20;8.70;99.90
75262;DHT22;63859;51.064;4.580;2022-12-19T11:01:46;8.80;99.90
75262;DHT22;63859;51.064;4.580;2022-12-19T11:07:16;8.90;99.90
75262;DHT22;63859;51.064;4.580;2022-12-19T11:09:44;8.90;99.90
75262;DHT22;63859;51.064;4.580;2022-12-19T11:12:15;9.00;99.90
75262;DHT22;63859;51.064;4.580;2022-12-19T11:14:45;9.00;99.90
75262;DHT22;63859;51.064;4.580;2022-12-19T11:17:37;9.10;99.90
75262;DHT22;63859;51.064;4.580;2022-12-19T11:20:11;9.10;99.90
75262;DHT22;63859;51.064;4.580;2022-12-19T11:22:37;9.20;99.90
75262;DHT22;63859;51.064;4.580;2022-12-19T11:25:05;9.30;99.90
75262;DHT22;63859;51.064;4.580;2022-12-19T11:27:45;9.30;99.90
75262;DHT22;63859;51.064;4.580;2022-12-19T11:30:21;9.40;99.90
75262;DHT22;63859;51.064;4.580;2022-12-19T11:32:49;9.40;99.90
75262;DHT22;63859;51.064;4.580;2022-12-19T11:35:31;9.40;99.90
75262;DHT22;63859;51.064;4.580;2022-12-19T11:38:00;9.50;99.90
75262;DHT22;63859;51.064;4.580;2022-12-19T11:40:46;9.60;99.90
75262;DHT22;63859;51.064;4.580;2022-12-19T11:48:43;9.80;99.90
75262;DHT22;63859;51.064;4.580;2022-12-19T11:56:25;9.90;99.90
75262;DHT22;63859;51.064;4.580;2022-12-19T11:59:16;10.00;99.90
75262;DHT22;63859;51.064;4.580;2022-12-19T12:02:08;10.10;99.90
75262;DHT22;63859;51.064;4.580;2022-12-19T12:07:39;10.20;99.90
75262;DHT22;63859;51.064;4.580;2022-12-19T12:10:17;10.30;99.90
75262;DHT22;63859;51.064;4.580;2022-12-19T12:20:41;10.50;99.90
75262;DHT22;63859;51.064;4.580;2022-12-19T12:23:34;10.40;99.90
75262;DHT22;63859;51.064;4.580;2022-12-19T12:34:26;10.60;99.90
75262;DHT22;63859;51.064;4.580;2022-12-19T12:40:22;10.60;99.90
75262;DHT22;63859;51.064;4.580;2022-12-19T12:45:41;10.60;99.90
75262;DHT22;63859;51.064;4.580;2022-12-19T12:48:19;10.60;99.90
75262;DHT22;63859;51.064;4.580;2022-12-19T12:50:47;10.60;99.90
75262;DHT22;63859;51.064;4.580;2022-12-19T12:53:18;10.50;99.90
75262;DHT22;63859;51.064;4.580;2022-12-19T12:55:45;10.50;99.90
75262;DHT22;63859;51.064;4.580;2022-12-19T13:03:53;10.50;99.90
75262;DHT22;63859;51.064;4.580;2022-12-19T13:06:35;10.40;99.90
75262;DHT22;63859;51.064;4.580;2022-12-19T13:12:20;10.30;99.90
75262;DHT22;63859;51.064;4.580;2022-12-19T13:22:43;10.20;99.90
75262;DHT22;63859;51.064;4.580;2022-12-19T13:30:31;10.30;99.90
75262;DHT22;63859;51.064;4.580;2022-12-19T13:43:40;10.40;99.90
75262;DHT22;63859;51.064;4.580;2022-12-19T13:49:11;10.40;99.90
75262;DHT22;63859;51.064;4.580;2022-12-19T13:51:48;10.40;99.90
75262;DHT22;63859;51.064;4.580;2022-12-19T13:54:22;10.40;99.90
75262;DHT22;63859;51.064;4.580;2022-12-19T13:56:50;10.40;99.90
75262;DHT22;63859;51.064;4.580;2022-12-19T13:59:16;10.50;99.90
75262;DHT22;63859;51.064;4.580;2022-12-19T14:01:43;10.50;99.90
75262;DHT22;63859;51.064;4.580;2022-12-19T14:04:29;10.50;99.90
75262;DHT22;63859;51.064;4.580;2022-12-19T14:07:04;10.50;99.90
75262;DHT22;63859;51.064;4.580;2022-12-19T14:12:01;10.60;99.90
75262;DHT22;63859;51.064;4.580;2022-12-19T14:14:27;10.60;99.90
75262;DHT22;63859;51.064;4.580;2022-12-19T14:17:14;10.70;99.90
75262;DHT22;63859;51.064;4.580;2022-12-19T14:19:43;10.70;99.90
75262;DHT22;63859;51.064;4.580;2022-12-19T14:22:17;10.70;99.90
75262;DHT22;63859;51.064;4.580;2022-12-19T14:27:27;10.80;99.90
75262;DHT22;63859;51.064;4.580;2022-12-19T14:29:55;10.80;99.90
75262;DHT22;63859;51.064;4.580;2022-12-19T14:32:23;10.70;99.90
75262;DHT22;63859;51.064;4.580;2022-12-19T14:34:49;10.80;99.90
75262;DHT22;63859;51.064;4.580;2022-12-19T14:37:32;10.70;99.90
75262;DHT22;63859;51.064;4.580;2022-12-19T14:42:37;10.70;99.90
75262;DHT22;63859;51.064;4.580;2022-12-19T14:45:39;10.80;99.90
75262;DHT22;63859;51.064;4.580;2022-12-19T14:48:31;10.70;99.90
75262;DHT22;63859;51.064;4.580;2022-12-19T14:51:04;10.80;99.90
75262;DHT22;63859;51.064;4.580;2022-12-19T14:53:35;10.70;99.90
75262;DHT22;63859;51.064;4.580;2022-12-19T14:56:21;10.70;99.90
75262;DHT22;63859;51.064;4.580;2022-12-19T14:58:55;10.80;99.90
75262;DHT22;63859;51.064;4.580;2022-12-19T15:01:27;10.70;99.90
75262;DHT22;63859;51.064;4.580;2022-12-19T15:04:02;10.70;99.90
75262;DHT22;63859;51.064;4.580;2022-12-19T15:06:30;10.70;99.90
75262;DHT22;63859;51.064;4.580;2022-12-19T15:09:04;10.70;99.90
75262;DHT22;63859;51.064;4.580;2022-12-19T15:11:45;10.70;99.90
75262;DHT22;63859;51.064;4.580;2022-12-19T15:14:42;10.70;99.90
75262;DHT22;63859;51.064;4.580;2022-12-19T15:17:21;10.70;99.90
75262;DHT22;63859;51.064;4.580;2022-12-19T15:19:47;10.70;99.90
75262;DHT22;63859;51.064;4.580;2022-12-19T15:22:14;10.60;99.90
75262;DHT22;63859;51.064;4.580;2022-12-19T15:24:40;10.60;99.90
75262;DHT22;63859;51.064;4.580;2022-12-19T15:27:13;10.70;99.90
75262;DHT22;63859;51.064;4.580;2022-12-19T15:29:39;10.60;99.90
75262;DHT22;63859;51.064;4.580;2022-12-19T15:32:08;10.60;99.90
75262;DHT22;63859;51.064;4.580;2022-12-19T15:34:36;10.60;99.90
75262;DHT22;63859;51.064;4.580;2022-12-19T15:37:08;10.60;99.90
75262;DHT22;63859;51.064;4.580;2022-12-19T15:39:34;10.50;99.90
75262;DHT22;63859;51.064;4.580;2022-12-19T15:42:00;10.50;99.90
75262;DHT22;63859;51.064;4.580;2022-12-19T15:44:38;10.50;99.90
75262;DHT22;63859;51.064;4.580;2022-12-19T15:47:06;10.60;99.90
75262;DHT22;63859;51.064;4.580;2022-12-19T15:49:36;10.60;99.90
75262;DHT22;63859;51.064;4.580;2022-12-19T15:52:15;10.60;99.90
75262;DHT22;63859;51.064;4.580;2022-12-19T15:54:41;10.60;99.90
75262;DHT22;63859;51.064;4.580;2022-12-19T15:57:23;10.70;99.90
75262;DHT22;63859;51.064;4.580;2022-12-19T15:59:51;10.60;99.90
75262;DHT22;63859;51.064;4.580;2022-12-19T16:02:21;10.60;99.90
75262;DHT22;63859;51.064;4.580;2022-12-19T16:04:49;10.60;99.90
75262;DHT22;63859;51.064;4.580;2022-12-19T16:07:17;10.60;99.90
75262;DHT22;63859;51.064;4.580;2022-12-19T16:09:43;10.70;99.90
75262;DHT22;63859;51.064;4.580;2022-12-19T16:12:16;10.60;99.90
75262;DHT22;63859;51.064;4.580;2022-12-19T16:14:44;10.60;99.90
75262;DHT22;63859;51.064;4.580;2022-12-19T16:17:16;10.60;99.90
75262;DHT22;63859;51.064;4.580;2022-12-19T16:19:43;10.60;99.90
75262;DHT22;63859;51.064;4.580;2022-12-19T16:22:20;10.60;99.90
75262;DHT22;63859;51.064;4.580;2022-12-19T16:24:47;10.60;99.90
75262;DHT22;63859;51.064;4.580;2022-12-19T16:27:20;10.60;99.90
75262;DHT22;63859;51.064;4.580;2022-12-19T16:29:47;10.60;99.90
75262;DHT22;63859;51.064;4.580;2022-12-19T16:32:13;10.50;99.90
75262;DHT22;63859;51.064;4.580;2022-12-19T16:34:39;10.50;99.90
75262;DHT22;63859;51.064;4.580;2022-12-19T16:37:06;10.50;99.90
75262;DHT22;63859;51.064;4.580;2022-12-19T16:39:31;10.40;99.90
75262;DHT22;63859;51.064;4.580;2022-12-19T16:41:57;10.40;99.90
75262;DHT22;63859;51.064;4.580;2022-12-19T16:44:22;10.40;99.90
75262;DHT22;63859;51.064;4.580;2022-12-19T16:46:50;10.40;99.90
75262;DHT22;63859;51.064;4.580;2022-12-19T16:49:18;10.40;99.90
75262;DHT22;63859;51.064;4.580;2022-12-19T16:51:45;10.40;99.90
75262;DHT22;63859;51.064;4.580;2022-12-19T16:54:11;10.30;99.90
75262;DHT22;63859;51.064;4.580;2022-12-19T16:56:47;10.30;99.90
75262;DHT22;63859;51.064;4.580;2022-12-19T16:59:26;10.20;99.90
75262;DHT22;63859;51.064;4.580;2022-12-19T17:01:53;10.20;99.90
75262;DHT22;63859;51.064;4.580;2022-12-19T17:04:22;10.20;99.90
75262;DHT22;63859;51.064;4.580;2022-12-19T17:06:49;10.10;99.90
75262;DHT22;63859;51.064;4.580;2022-12-19T17:09:19;10.10;99.90
75262;DHT22;63859;51.064;4.580;2022-12-19T17:11:56;10.10;99.90
75262;DHT22;63859;51.064;4.580;2022-12-19T17:14:29;10.10;99.90
75262;DHT22;63859;51.064;4.580;2022-12-19T17:16:56;10.10;99.90
75262;DHT22;63859;51.064;4.580;2022-12-19T17:19:34;10.00;99.90
75262;DHT22;63859;51.064;4.580;2022-12-19T17:22:01;10.00;99.90
75262;DHT22;63859;51.064;4.580;2022-12-19T17:24:26;10.10;99.90
75262;DHT22;63859;51.064;4.580;2022-12-19T17:26:52;10.00;99.90
75262;DHT22;63859;51.064;4.580;2022-12-19T17:29:18;10.00;99.90
75262;DHT22;63859;51.064;4.580;2022-12-19T17:31:43;10.10;99.90
75262;DHT22;63859;51.064;4.580;2022-12-19T17:34:17;10.10;99.90
75262;DHT22;63859;51.064;4.580;2022-12-19T17:36:44;10.10;99.90
75262;DHT22;63859;51.064;4.580;2022-12-19T17:39:28;10.10;99.90
75262;DHT22;63859;51.064;4.580;2022-12-19T17:41:57;10.10;99.90
75262;DHT22;63859;51.064;4.580;2022-12-19T17:44:23;10.10;99.90
75262;DHT22;63859;51.064;4.580;2022-12-19T17:46:48;10.10;99.90
75262;DHT22;63859;51.064;4.580;2022-12-19T17:49:23;10.20;99.90
75262;DHT22;63859;51.064;4.580;2022-12-19T17:51:51;10.20;99.90
75262;DHT22;63859;51.064;4.580;2022-12-19T17:54:20;10.20;99.90
75262;DHT22;63859;51.064;4.580;2022-12-19T17:56:46;10.20;99.90
75262;DHT22;63859;51.064;4.580;2022-12-19T17:59:12;10.20;99.90
75262;DHT22;63859;51.064;4.580;2022-12-19T18:01:39;10.20;99.90
75262;DHT22;63859;51.064;4.580;2022-12-19T18:04:16;10.20;99.90
75262;DHT22;63859;51.064;4.580;2022-12-19T18:06:43;10.20;99.90
75262;DHT22;63859;51.064;4.580;2022-12-19T18:09:19;10.30;99.90
75262;DHT22;63859;51.064;4.580;2022-12-19T18:11:46;10.20;99.90
75262;DHT22;63859;51.064;4.580;2022-12-19T18:14:12;10.30;99.90
75262;DHT22;63859;51.064;4.580;2022-12-19T18:16:37;10.30;99.90
75262;DHT22;63859;51.064;4.580;2022-12-19T18:19:03;10.30;99.90